createdAt,value
2019-04-27T00:00:49.333Z,11.80
2019-04-27T00:02:13.462Z,11.00
2019-04-27T00:03:35.040Z,10.98
2019-04-27T00:04:48.687Z,11.03
2019-04-27T00:05:53.552Z,9.78
2019-04-27T00:07:00.004Z,10.72
2019-04-27T00:08:15.432Z,9.88
2019-04-27T00:09:27.192Z,10.45
2019-04-27T00:10:33.591Z,11.48
2019-04-27T00:11:42.094Z,11.10
2019-04-27T00:12:46.129Z,10.80
2019-04-27T00:13:50.910Z,11.55
2019-04-27T00:14:57.159Z,11.70
2019-04-27T00:16:13.472Z,11.65
2019-04-27T00:17:44.830Z,11.75
2019-04-27T00:18:39.627Z,12.70
2019-04-27T00:19:58.052Z,11.48
2019-04-27T00:21:04.150Z,12.00
2019-04-27T00:22:10.821Z,12.98
2019-04-27T00:23:31.948Z,11.40
2019-04-27T00:24:37.984Z,11.38
2019-04-27T00:25:43.867Z,11.20
2019-04-27T00:26:48.437Z,12.33
2019-04-27T00:27:53.502Z,11.88
2019-04-27T00:28:58.320Z,11.63
2019-04-27T00:30:03.856Z,11.45
2019-04-27T00:31:09.023Z,10.88
2019-04-27T00:32:13.563Z,11.57
2019-04-27T00:33:18.032Z,11.93
2019-04-27T00:34:23.633Z,10.40
2019-04-27T00:35:29.806Z,10.35
2019-04-27T00:36:53.446Z,10.70
2019-04-27T00:38:00.008Z,10.18
2019-04-27T00:39:26.303Z,9.48
2019-04-27T00:40:33.554Z,9.55
2019-04-27T00:41:38.329Z,7.90
2019-04-27T00:42:44.110Z,9.10
2019-04-27T00:43:48.627Z,9.40
2019-04-27T00:44:54.254Z,9.83
2019-04-27T00:45:58.698Z,9.33
2019-04-27T00:47:04.872Z,8.73
2019-04-27T00:48:09.669Z,9.50
2019-04-27T00:49:14.137Z,10.32
2019-04-27T00:50:18.895Z,10.05
2019-04-27T00:51:23.643Z,9.53
2019-04-27T00:52:28.175Z,9.90
2019-04-27T00:53:33.515Z,10.10
2019-04-27T00:54:38.096Z,10.85
2019-04-27T00:55:47.415Z,11.30
2019-04-27T00:56:53.597Z,12.80
2019-04-27T00:58:04.038Z,12.28
2019-04-27T00:59:17.525Z,11.90
2019-04-27T01:00:39.568Z,12.93
2019-04-27T01:01:51.435Z,12.65
2019-04-27T01:03:03.900Z,12.40
2019-04-27T01:04:19.156Z,13.43
2019-04-27T01:05:25.244Z,13.93
2019-04-27T01:06:29.716Z,13.13
2019-04-27T01:07:34.180Z,14.35
2019-04-27T01:08:38.936Z,14.93
2019-04-27T01:09:43.496Z,14.15
2019-04-27T01:10:48.933Z,14.70
2019-04-27T01:11:53.541Z,16.82
2019-04-27T01:12:57.946Z,15.45
2019-04-27T01:14:03.888Z,15.78
2019-04-27T01:15:08.542Z,16.97
2019-04-27T01:16:15.641Z,16.67
2019-04-27T01:17:19.697Z,15.85
2019-04-27T01:18:24.432Z,16.65
2019-04-27T01:19:30.196Z,16.55
2019-04-27T01:20:34.691Z,16.40
2019-04-27T01:21:39.700Z,16.62
2019-04-27T01:22:45.157Z,17.67
2019-04-27T01:23:49.617Z,16.37
2019-04-27T01:24:54.177Z,17.07
2019-04-27T01:26:03.216Z,17.90
2019-04-27T01:27:24.125Z,17.30
2019-04-27T01:28:32.902Z,17.23
2019-04-27T01:29:39.222Z,17.40
2019-04-27T01:30:46.854Z,18.12
2019-04-27T01:31:51.600Z,17.92
2019-04-27T01:32:56.068Z,18.20
2019-04-27T01:34:00.536Z,18.40
2019-04-27T01:35:05.671Z,17.65
2019-04-27T01:36:10.747Z,17.95
2019-04-27T01:37:16.961Z,19.82
2019-04-27T01:38:21.429Z,19.10
2019-04-27T01:39:26.863Z,19.30
2019-04-27T01:40:31.353Z,20.10
2019-04-27T01:41:36.110Z,19.98
2019-04-27T01:42:41.832Z,19.50
2019-04-27T01:43:46.306Z,18.25
2019-04-27T01:44:51.118Z,18.45
2019-04-27T01:45:56.028Z,17.62
2019-04-27T01:47:00.489Z,18.32
2019-04-27T01:48:05.027Z,18.12
2019-04-27T01:49:09.926Z,19.00
2019-04-27T01:50:14.564Z,19.20
2019-04-27T01:51:20.945Z,18.30
2019-04-27T01:52:25.507Z,19.17
2019-04-27T01:53:30.437Z,17.75
2019-04-27T01:54:35.004Z,18.32
2019-04-27T01:55:40.779Z,17.87
2019-04-27T01:56:45.338Z,18.87
2019-04-27T01:57:50.089Z,18.15
2019-04-27T01:58:54.551Z,18.15
2019-04-27T01:59:59.162Z,17.60
2019-04-27T02:01:24.418Z,18.12
2019-04-27T02:02:30.806Z,16.93
2019-04-27T02:03:52.608Z,16.87
2019-04-27T02:05:14.676Z,17.55
2019-04-27T02:06:20.789Z,16.00
2019-04-27T02:07:25.651Z,16.60
2019-04-27T02:08:30.380Z,16.70
2019-04-27T02:09:34.848Z,17.12
2019-04-27T02:10:39.688Z,17.05
2019-04-27T02:11:44.158Z,16.62
2019-04-27T02:12:48.893Z,17.90
2019-04-27T02:13:53.651Z,18.92
2019-04-27T02:14:58.869Z,18.32
2019-04-27T02:16:03.379Z,18.80
2019-04-27T02:17:09.603Z,17.07
2019-04-27T02:18:14.464Z,19.20
2019-04-27T02:19:19.496Z,19.32
2019-04-27T02:20:24.297Z,19.95
2019-04-27T02:21:29.479Z,20.10
2019-04-27T02:22:33.928Z,19.15
2019-04-27T02:23:39.437Z,21.00
2019-04-27T02:24:44.202Z,20.40
2019-04-27T02:25:49.677Z,20.15
2019-04-27T02:26:54.526Z,20.10
2019-04-27T02:28:00.627Z,21.33
2019-04-27T02:29:09.487Z,21.82
2019-04-27T02:30:21.533Z,21.37
2019-04-27T02:31:45.524Z,23.35
2019-04-27T02:33:12.263Z,22.35
2019-04-27T02:34:21.773Z,23.50
2019-04-27T02:35:26.236Z,23.25
2019-04-27T02:36:30.748Z,21.62
2019-04-27T02:37:35.647Z,24.40
2019-04-27T02:38:40.709Z,23.80
2019-04-27T02:39:45.239Z,25.62
2019-04-27T02:40:59.815Z,22.77
2019-04-27T02:42:03.942Z,24.10
2019-04-27T02:43:10.484Z,23.83
2019-04-27T02:44:22.601Z,24.15
2019-04-27T02:45:27.066Z,25.57
2019-04-27T02:46:31.747Z,24.95
2019-04-27T02:47:36.486Z,23.67
2019-04-27T02:48:55.339Z,24.92
2019-04-27T02:49:47.401Z,25.08
2019-04-27T02:50:53.502Z,26.10
2019-04-27T02:52:05.381Z,25.62
2019-04-27T02:53:11.127Z,25.95
2019-04-27T02:54:16.076Z,26.00
2019-04-27T02:55:20.546Z,27.13
2019-04-27T02:56:25.191Z,27.32
2019-04-27T02:57:30.433Z,27.82
2019-04-27T02:58:34.930Z,28.10
2019-04-27T02:59:40.036Z,27.13
2019-04-27T03:00:44.928Z,26.90
2019-04-27T03:02:02.898Z,28.45
2019-04-27T03:03:10.171Z,26.62
2019-04-27T03:04:14.839Z,27.10
2019-04-27T03:05:22.374Z,28.80
2019-04-27T03:06:26.838Z,26.05
2019-04-27T03:07:31.610Z,28.92
2019-04-27T03:08:36.072Z,29.10
2019-04-27T03:09:40.546Z,30.17
2019-04-27T03:10:45.019Z,28.00
2019-04-27T03:11:50.084Z,28.25
2019-04-27T03:13:00.110Z,28.77
2019-04-27T03:14:15.107Z,29.20
2019-04-27T03:15:22.879Z,29.00
2019-04-27T03:16:33.256Z,28.20
2019-04-27T03:17:49.473Z,26.57
2019-04-27T03:19:10.213Z,27.20
2019-04-27T03:20:03.709Z,26.68
2019-04-27T03:21:12.775Z,24.37
2019-04-27T03:22:20.069Z,24.10
2019-04-27T03:23:24.800Z,25.10
2019-04-27T03:24:46.677Z,25.32
2019-04-27T03:25:52.780Z,22.67
2019-04-27T03:27:00.500Z,22.90
2019-04-27T03:28:10.525Z,21.33
2019-04-27T03:29:14.515Z,22.93
2019-04-27T03:30:22.963Z,20.43
2019-04-27T03:31:25.580Z,19.25
2019-04-27T03:32:31.658Z,19.60
2019-04-27T03:33:36.482Z,19.48
2019-04-27T03:34:42.060Z,19.45
2019-04-27T03:35:46.940Z,19.70
2019-04-27T03:36:51.858Z,19.02
2019-04-27T03:37:56.328Z,19.73
2019-04-27T03:39:00.797Z,17.05
2019-04-27T03:40:10.259Z,17.07
2019-04-27T03:41:14.180Z,16.52
2019-04-27T03:42:20.750Z,16.80
2019-04-27T03:43:24.915Z,16.67
2019-04-27T03:44:32.050Z,16.20
2019-04-27T03:45:36.024Z,15.83
2019-04-27T03:46:41.739Z,14.73
2019-04-27T03:47:46.512Z,15.78
2019-04-27T03:48:51.141Z,15.63
2019-04-27T03:49:55.670Z,15.98
2019-04-27T03:51:01.779Z,16.25
2019-04-27T03:52:09.631Z,16.48
2019-04-27T03:53:29.805Z,14.13
2019-04-27T03:54:50.373Z,13.40
2019-04-27T03:56:01.391Z,14.23
2019-04-27T03:57:09.933Z,13.20
2019-04-27T03:58:21.777Z,14.10
2019-04-27T03:59:34.055Z,14.28
2019-04-27T04:00:39.830Z,13.85
2019-04-27T04:01:44.411Z,13.45
2019-04-27T04:02:50.224Z,12.68
2019-04-27T04:03:55.164Z,12.98
2019-04-27T04:04:59.945Z,12.80
2019-04-27T04:06:04.845Z,13.62
2019-04-27T04:07:15.581Z,13.88
2019-04-27T04:08:20.385Z,12.53
2019-04-27T04:09:26.482Z,12.58
2019-04-27T04:10:32.912Z,13.72
2019-04-27T04:11:45.376Z,11.85
2019-04-27T04:12:56.381Z,11.55
2019-04-27T04:14:02.404Z,11.38
2019-04-27T04:15:10.010Z,11.28
2019-04-27T04:16:32.381Z,12.18
2019-04-27T04:17:40.226Z,10.32
2019-04-27T04:19:00.346Z,10.13
2019-04-27T04:20:06.585Z,11.50
2019-04-27T04:21:11.052Z,10.85
2019-04-27T04:22:15.531Z,11.75
2019-04-27T04:23:20.616Z,10.70
2019-04-27T04:24:29.342Z,10.88
2019-04-27T04:25:33.383Z,11.30
2019-04-27T04:26:40.264Z,11.35
2019-04-27T04:27:44.312Z,11.10
2019-04-27T04:28:50.006Z,10.85
2019-04-27T04:29:54.923Z,10.85
2019-04-27T04:31:00.497Z,10.68
2019-04-27T04:32:05.576Z,10.78
2019-04-27T04:33:10.597Z,9.70
2019-04-27T04:34:15.123Z,11.35
2019-04-27T04:35:22.226Z,10.18
2019-04-27T04:36:26.708Z,9.38
2019-04-27T04:37:31.154Z,9.85
2019-04-27T04:38:36.011Z,9.30
2019-04-27T04:39:40.747Z,9.33
2019-04-27T04:40:46.862Z,9.55
2019-04-27T04:41:55.743Z,9.50
2019-04-27T04:43:07.600Z,9.58
2019-04-27T04:44:21.127Z,9.38
2019-04-27T04:45:27.219Z,9.58
2019-04-27T04:46:33.326Z,9.00
2019-04-27T04:47:45.448Z,9.30
2019-04-27T04:48:50.442Z,9.60
2019-04-27T04:50:10.380Z,9.55
2019-04-27T04:51:01.052Z,9.65
2019-04-27T04:52:05.790Z,9.78
2019-04-27T04:53:12.574Z,9.80
2019-04-27T04:54:16.408Z,10.18
2019-04-27T04:55:20.889Z,10.72
2019-04-27T04:56:25.341Z,10.15
2019-04-27T04:57:29.997Z,9.73
2019-04-27T04:58:34.536Z,10.15
2019-04-27T04:59:39.161Z,10.38
2019-04-27T05:00:43.845Z,10.05
2019-04-27T05:01:49.913Z,10.05
2019-04-27T05:02:54.548Z,10.10
2019-04-27T05:03:59.129Z,10.43
2019-04-27T05:05:05.087Z,10.48
2019-04-27T05:06:09.853Z,10.38
2019-04-27T05:07:14.322Z,10.38
2019-04-27T05:08:19.143Z,10.65
2019-04-27T05:09:23.726Z,10.20
2019-04-27T05:10:28.864Z,10.72
2019-04-27T05:11:34.373Z,10.13
2019-04-27T05:12:38.837Z,9.80
2019-04-27T05:13:43.295Z,10.72
2019-04-27T05:14:48.906Z,9.75
2019-04-27T05:15:53.797Z,10.58
2019-04-27T05:16:59.174Z,10.15
2019-04-27T05:18:04.091Z,10.80
2019-04-27T05:19:11.095Z,10.60
2019-04-27T05:20:26.213Z,10.95
2019-04-27T05:21:32.884Z,10.20
2019-04-27T05:22:37.353Z,10.05
2019-04-27T05:23:42.102Z,10.53
2019-04-27T05:24:49.330Z,11.43
2019-04-27T05:25:53.865Z,11.57
2019-04-27T05:26:59.032Z,12.20
2019-04-27T05:28:03.952Z,11.25
2019-04-27T05:29:09.225Z,11.78
2019-04-27T05:30:13.750Z,12.37
2019-04-27T05:31:19.511Z,12.65
2019-04-27T05:32:24.363Z,12.53
2019-04-27T05:33:28.829Z,12.80
2019-04-27T05:34:33.289Z,12.75
2019-04-27T05:35:40.634Z,13.80
2019-04-27T05:36:48.784Z,13.40
2019-04-27T05:37:50.381Z,12.98
2019-04-27T05:38:54.844Z,14.25
2019-04-27T05:39:59.318Z,14.47
2019-04-27T05:41:03.871Z,12.70
2019-04-27T05:42:12.557Z,14.63
2019-04-27T05:43:16.288Z,13.88
2019-04-27T05:44:25.736Z,15.08
2019-04-27T05:45:57.070Z,14.23
2019-04-27T05:47:05.315Z,13.98
2019-04-27T05:48:11.845Z,14.43
2019-04-27T05:49:18.799Z,14.98
2019-04-27T05:50:35.514Z,15.43
2019-04-27T05:51:36.651Z,15.55
2019-04-27T05:52:36.603Z,16.90
2019-04-27T05:53:41.069Z,16.40
2019-04-27T05:54:45.705Z,16.05
2019-04-27T05:55:50.188Z,17.48
2019-04-27T05:56:54.657Z,17.67
2019-04-27T05:57:59.281Z,18.10
2019-04-27T05:59:03.828Z,17.73
2019-04-27T06:00:09.280Z,18.80
2019-04-27T06:01:13.762Z,18.98
2019-04-27T06:02:20.760Z,18.73
2019-04-27T06:03:24.390Z,17.85
2019-04-27T06:04:29.227Z,18.50
2019-04-27T06:05:33.683Z,19.20
2019-04-27T06:06:39.883Z,19.15
2019-04-27T06:07:44.412Z,18.50
2019-04-27T06:08:49.548Z,19.75
2019-04-27T06:09:54.008Z,19.50
2019-04-27T06:10:59.319Z,18.80
2019-04-27T06:12:03.879Z,20.55
2019-04-27T06:13:10.611Z,19.23
2019-04-27T06:14:14.507Z,20.68
2019-04-27T06:15:19.856Z,20.37
2019-04-27T06:16:24.433Z,20.88
2019-04-27T06:17:29.894Z,20.08
2019-04-27T06:18:34.872Z,21.25
2019-04-27T06:19:39.336Z,20.80
2019-04-27T06:20:53.323Z,20.20
2019-04-27T06:21:50.149Z,21.00
2019-04-27T06:22:54.548Z,20.52
2019-04-27T06:23:59.092Z,20.80
2019-04-27T06:25:04.362Z,21.20
2019-04-27T06:26:11.671Z,21.23
2019-04-27T06:27:14.982Z,20.27
2019-04-27T06:28:19.733Z,19.95
2019-04-27T06:29:24.553Z,21.12
2019-04-27T06:30:29.335Z,19.85
2019-04-27T06:31:34.076Z,20.48
2019-04-27T06:32:39.564Z,20.32
2019-04-27T06:33:44.184Z,19.42
2019-04-27T06:34:48.987Z,20.10
2019-04-27T06:35:53.480Z,20.48
2019-04-27T06:36:59.944Z,20.97
2019-04-27T06:38:04.562Z,19.20
2019-04-27T06:39:09.929Z,19.60
2019-04-27T06:40:14.899Z,19.87
2019-04-27T06:41:19.379Z,19.52
2019-04-27T06:42:23.871Z,20.23
2019-04-27T06:43:29.424Z,20.17
2019-04-27T06:44:33.983Z,19.82
2019-04-27T06:45:38.855Z,18.32
2019-04-27T06:46:43.416Z,19.27
2019-04-27T06:47:48.837Z,18.90
2019-04-27T06:48:54.045Z,18.27
2019-04-27T06:49:58.786Z,19.12
2019-04-27T06:51:05.678Z,17.62
2019-04-27T06:52:09.608Z,19.30
2019-04-27T06:53:14.072Z,18.67
2019-04-27T06:54:19.767Z,19.82
2019-04-27T06:55:25.076Z,19.52
2019-04-27T06:56:29.941Z,18.80
2019-04-27T06:57:34.714Z,18.50
2019-04-27T06:58:40.737Z,19.65
2019-04-27T06:59:45.379Z,20.05
2019-04-27T07:00:50.221Z,19.82
2019-04-27T07:01:55.040Z,20.27
2019-04-27T07:02:59.768Z,20.25
2019-04-27T07:04:04.252Z,20.57
2019-04-27T07:05:09.112Z,20.43
2019-04-27T07:06:13.568Z,20.43
2019-04-27T07:07:19.468Z,20.02
2019-04-27T07:08:24.068Z,20.72
2019-04-27T07:09:29.649Z,21.62
2019-04-27T07:10:34.143Z,21.17
2019-04-27T07:11:39.382Z,21.12
2019-04-27T07:12:44.058Z,22.15
2019-04-27T07:13:49.789Z,23.62
2019-04-27T07:14:55.194Z,22.07
2019-04-27T07:15:59.788Z,22.82
2019-04-27T07:17:04.233Z,23.85
2019-04-27T07:18:09.717Z,23.47
2019-04-27T07:19:14.654Z,24.80
2019-04-27T07:20:19.536Z,24.63
2019-04-27T07:21:24.884Z,25.77
2019-04-27T07:22:29.954Z,24.50
2019-04-27T07:23:38.924Z,24.57
2019-04-27T07:24:48.705Z,24.77
2019-04-27T07:25:53.600Z,24.18
2019-04-27T07:26:59.665Z,24.35
2019-04-27T07:28:04.671Z,24.30
2019-04-27T07:29:09.718Z,25.20
2019-04-27T07:30:14.472Z,25.45
2019-04-27T07:31:19.364Z,27.22
2019-04-27T07:32:23.809Z,26.25
2019-04-27T07:33:29.679Z,26.25
2019-04-27T07:34:35.117Z,27.55
2019-04-27T07:35:39.590Z,27.52
2019-04-27T07:36:44.349Z,26.27
2019-04-27T07:37:49.152Z,27.70
2019-04-27T07:38:53.629Z,27.77
2019-04-27T07:39:59.151Z,28.32
2019-04-27T07:41:04.074Z,26.35
2019-04-27T07:42:15.364Z,27.95
2019-04-27T07:43:30.077Z,27.80
2019-04-27T07:44:36.334Z,27.17
2019-04-27T07:45:41.481Z,27.22
2019-04-27T07:46:47.578Z,28.10
2019-04-27T07:47:53.997Z,26.80
2019-04-27T07:48:59.464Z,29.23
2019-04-27T07:50:05.054Z,28.50
2019-04-27T07:51:09.520Z,29.23
2019-04-27T07:52:14.003Z,28.98
2019-04-27T07:53:19.351Z,29.85
2019-04-27T07:54:23.839Z,29.50
2019-04-27T07:55:28.908Z,30.12
2019-04-27T07:56:33.745Z,29.67
2019-04-27T07:57:39.786Z,29.20
2019-04-27T07:58:44.764Z,28.45
2019-04-27T07:59:50.238Z,30.92
2019-04-27T08:00:54.844Z,29.35
2019-04-27T08:01:59.342Z,30.82
2019-04-27T08:03:03.819Z,30.15
2019-04-27T08:04:09.115Z,30.85
2019-04-27T08:05:14.988Z,30.82
2019-04-27T08:06:19.451Z,29.57
2019-04-27T08:07:23.990Z,28.35
2019-04-27T08:08:28.669Z,28.30
2019-04-27T08:09:33.404Z,30.48
2019-04-27T08:10:39.211Z,29.07
2019-04-27T08:11:43.869Z,28.83
2019-04-27T08:12:49.852Z,29.07
2019-04-27T08:13:54.687Z,30.15
2019-04-27T08:15:00.066Z,30.10
2019-04-27T08:16:04.581Z,29.05
2019-04-27T08:17:09.738Z,30.08
2019-04-27T08:18:14.304Z,29.90
2019-04-27T08:19:19.619Z,28.83
2019-04-27T08:20:24.184Z,29.27
2019-04-27T08:21:28.962Z,29.80
2019-04-27T08:22:33.776Z,29.67
2019-04-27T08:23:39.405Z,30.17
2019-04-27T08:24:44.276Z,30.30
2019-04-27T08:25:49.027Z,31.12
2019-04-27T08:27:01.117Z,28.92
2019-04-27T08:28:10.454Z,29.42
2019-04-27T08:29:18.395Z,29.75
2019-04-27T08:30:24.619Z,30.27
2019-04-27T08:31:42.311Z,29.75
2019-04-27T08:32:49.726Z,31.33
2019-04-27T08:33:54.385Z,31.02
2019-04-27T08:34:59.463Z,28.75
2019-04-27T08:36:04.287Z,29.52
2019-04-27T08:37:09.274Z,28.73
2019-04-27T08:38:14.745Z,28.95
2019-04-27T08:39:19.246Z,29.37
2019-04-27T08:40:24.047Z,30.35
2019-04-27T08:41:29.544Z,28.02
2019-04-27T08:42:34.068Z,28.80
2019-04-27T08:43:39.144Z,28.12
2019-04-27T08:44:43.595Z,28.20
2019-04-27T08:45:48.914Z,27.02
2019-04-27T08:46:53.439Z,28.05
2019-04-27T08:47:59.547Z,27.98
2019-04-27T08:49:05.118Z,27.70
2019-04-27T08:50:09.831Z,26.77
2019-04-27T08:51:14.612Z,26.90
2019-04-27T08:52:19.457Z,26.27
2019-04-27T08:53:24.212Z,27.45
2019-04-27T08:54:29.479Z,27.70
2019-04-27T08:55:34.095Z,27.60
2019-04-27T08:56:39.616Z,27.45
2019-04-27T08:57:44.372Z,28.27
2019-04-27T08:58:49.663Z,27.50
2019-04-27T08:59:55.276Z,26.42
2019-04-27T09:00:59.740Z,24.92
2019-04-27T09:02:04.276Z,25.60
2019-04-27T09:03:09.523Z,25.65
2019-04-27T09:04:14.869Z,24.65
2019-04-27T09:05:21.283Z,25.40
2019-04-27T09:06:25.702Z,27.07
2019-04-27T09:07:31.935Z,27.70
2019-04-27T09:08:41.261Z,25.02
2019-04-27T09:09:49.697Z,26.60
2019-04-27T09:10:59.002Z,25.02
2019-04-27T09:12:21.173Z,26.93
2019-04-27T09:13:43.996Z,26.55
2019-04-27T09:15:04.370Z,25.88
2019-04-27T09:16:22.515Z,26.12
2019-04-27T09:17:31.591Z,27.60
2019-04-27T09:18:36.350Z,26.65
2019-04-27T09:19:45.203Z,26.75
2019-04-27T09:20:54.206Z,25.52
2019-04-27T09:22:15.812Z,26.35
2019-04-27T09:23:16.528Z,24.00
2019-04-27T09:24:21.002Z,24.15
2019-04-27T09:25:25.780Z,25.48
2019-04-27T09:26:30.418Z,23.87
2019-04-27T09:27:35.181Z,25.05
2019-04-27T09:28:39.941Z,25.50
2019-04-27T09:29:44.437Z,23.83
2019-04-27T09:30:49.793Z,25.70
2019-04-27T09:31:54.651Z,25.40
2019-04-27T09:32:59.577Z,25.00
2019-04-27T09:34:05.570Z,24.55
2019-04-27T09:35:10.282Z,24.27
2019-04-27T09:36:16.569Z,23.87
2019-04-27T09:37:21.079Z,24.07
2019-04-27T09:38:26.440Z,24.20
2019-04-27T09:39:31.397Z,23.18
2019-04-27T09:40:36.130Z,23.83
2019-04-27T09:41:40.755Z,24.55
2019-04-27T09:42:46.380Z,25.55
2019-04-27T09:43:50.883Z,23.05
2019-04-27T09:44:55.887Z,26.23
2019-04-27T09:46:00.295Z,24.90
2019-04-27T09:47:06.123Z,24.63
2019-04-27T09:48:10.711Z,24.27
2019-04-27T09:49:15.786Z,25.27
2019-04-27T09:50:20.681Z,25.65
2019-04-27T09:51:25.681Z,24.65
2019-04-27T09:52:30.724Z,25.35
2019-04-27T09:53:36.468Z,23.25
2019-04-27T09:54:41.050Z,22.42
2019-04-27T09:55:46.862Z,20.27
2019-04-27T09:56:51.686Z,20.17
2019-04-27T09:57:56.897Z,19.45
2019-04-27T09:59:01.506Z,19.00
2019-04-27T10:00:09.665Z,17.48
2019-04-27T10:01:16.375Z,18.57
2019-04-27T10:02:21.243Z,18.57
2019-04-27T10:03:26.646Z,17.57
2019-04-27T10:04:32.414Z,17.07
2019-04-27T10:05:36.934Z,16.70
2019-04-27T10:06:41.429Z,17.65
2019-04-27T10:07:47.582Z,18.27
2019-04-27T10:08:53.512Z,17.75
2019-04-27T10:09:57.983Z,16.85
2019-04-27T10:11:02.760Z,16.48
2019-04-27T10:12:07.650Z,15.32
2019-04-27T10:13:12.590Z,16.10
2019-04-27T10:14:17.036Z,17.40
2019-04-27T10:15:21.507Z,16.12
2019-04-27T10:16:29.866Z,15.90
2019-04-27T10:17:34.329Z,16.40
2019-04-27T10:18:38.802Z,14.55
2019-04-27T10:19:43.277Z,14.85
2019-04-27T10:20:58.996Z,15.93
2019-04-27T10:21:53.956Z,14.50
2019-04-27T10:22:58.424Z,17.07
2019-04-27T10:24:02.890Z,15.78
2019-04-27T10:25:10.552Z,16.75
2019-04-27T10:26:15.801Z,15.63
2019-04-27T10:27:20.280Z,15.40
2019-04-27T10:28:25.039Z,15.10
2019-04-27T10:29:29.507Z,14.15
2019-04-27T10:30:35.372Z,15.13
2019-04-27T10:31:41.597Z,16.87
2019-04-27T10:32:46.366Z,16.87
2019-04-27T10:33:50.829Z,17.32
2019-04-27T10:34:55.296Z,16.65
2019-04-27T10:35:59.766Z,15.13
2019-04-27T10:37:06.013Z,15.08
2019-04-27T10:38:10.964Z,15.83
2019-04-27T10:39:17.065Z,15.32
2019-04-27T10:40:21.572Z,15.78
2019-04-27T10:41:26.072Z,15.70
2019-04-27T10:42:30.896Z,15.05
2019-04-27T10:43:35.365Z,14.15
2019-04-27T10:44:39.831Z,15.35
2019-04-27T10:45:46.297Z,15.55
2019-04-27T10:46:50.865Z,15.72
2019-04-27T10:47:56.272Z,15.40
2019-04-27T10:49:00.777Z,15.10
2019-04-27T10:50:09.076Z,14.38
2019-04-27T10:51:13.836Z,13.40
2019-04-27T10:52:18.321Z,13.60
2019-04-27T10:53:23.074Z,14.00
2019-04-27T10:54:27.541Z,12.78
2019-04-27T10:55:32.610Z,12.85
2019-04-27T10:56:37.110Z,12.13
2019-04-27T10:57:41.573Z,11.45
2019-04-27T10:58:46.197Z,11.43
2019-04-27T10:59:50.670Z,11.05
2019-04-27T11:00:59.425Z,11.20
2019-04-27T11:02:04.271Z,10.35
2019-04-27T11:03:09.031Z,10.90
2019-04-27T11:04:15.931Z,10.28
2019-04-27T11:05:23.521Z,10.82
2019-04-27T11:06:29.697Z,10.03
2019-04-27T11:07:38.608Z,10.03
2019-04-27T11:08:43.075Z,11.20
2019-04-27T11:09:47.910Z,10.55
2019-04-27T11:10:52.380Z,9.80
2019-04-27T11:11:57.499Z,10.25
2019-04-27T11:13:01.962Z,9.85
2019-04-27T11:14:06.945Z,9.38
2019-04-27T11:15:12.064Z,9.95
2019-04-27T11:16:16.598Z,9.45
2019-04-27T11:17:21.240Z,8.60
2019-04-27T11:18:25.907Z,9.88
2019-04-27T11:19:30.497Z,8.55
2019-04-27T11:20:36.272Z,9.95
2019-04-27T11:21:40.802Z,9.75
2019-04-27T11:22:46.498Z,9.15
2019-04-27T11:23:51.323Z,11.15
2019-04-27T11:24:56.372Z,10.68
2019-04-27T11:26:02.455Z,9.63
2019-04-27T11:27:07.746Z,10.63
2019-04-27T11:28:12.281Z,11.55
2019-04-27T11:29:17.128Z,11.55
2019-04-27T11:30:22.035Z,11.12
2019-04-27T11:31:26.507Z,11.18
2019-04-27T11:32:31.022Z,11.57
2019-04-27T11:33:36.340Z,11.80
2019-04-27T11:35:00.824Z,11.85
2019-04-27T11:36:18.870Z,12.45
2019-04-27T11:37:24.990Z,11.12
2019-04-27T11:38:29.747Z,12.50
2019-04-27T11:39:35.934Z,12.50
2019-04-27T11:40:40.452Z,12.80
2019-04-27T11:41:44.921Z,11.70
2019-04-27T11:42:49.411Z,12.37
2019-04-27T11:43:54.165Z,12.43
2019-04-27T11:44:58.638Z,12.93
2019-04-27T11:46:03.097Z,12.07
2019-04-27T11:47:07.887Z,13.05
2019-04-27T11:48:12.665Z,12.73
2019-04-27T11:49:17.128Z,13.10
2019-04-27T11:50:21.959Z,12.15
2019-04-27T11:51:26.767Z,11.63
2019-04-27T11:52:32.478Z,10.70
2019-04-27T11:53:37.306Z,11.18
2019-04-27T11:54:42.089Z,11.73
2019-04-27T11:55:47.024Z,10.78
2019-04-27T11:56:51.814Z,11.65
2019-04-27T11:57:57.221Z,11.38
2019-04-27T11:59:01.689Z,11.35
2019-04-27T12:00:12.384Z,11.38
2019-04-27T12:01:16.867Z,11.83
2019-04-27T12:02:21.363Z,11.48
2019-04-27T12:03:25.892Z,11.60
2019-04-27T12:04:30.361Z,11.85
2019-04-27T12:05:36.283Z,11.63
2019-04-27T12:06:41.738Z,10.65
2019-04-27T12:07:47.842Z,11.12
2019-04-27T12:08:53.364Z,10.63
2019-04-27T12:09:57.835Z,10.23
2019-04-27T12:11:02.293Z,11.53
2019-04-27T12:12:13.513Z,10.95
2019-04-27T12:13:12.998Z,10.30
2019-04-27T12:14:17.752Z,11.00
2019-04-27T12:15:22.625Z,10.38
2019-04-27T12:16:27.135Z,11.75
2019-04-27T12:17:31.916Z,12.30
2019-04-27T12:18:36.414Z,12.47
2019-04-27T12:19:40.884Z,11.12
2019-04-27T12:20:45.916Z,10.80
2019-04-27T12:21:51.472Z,10.85
2019-04-27T12:22:56.317Z,10.80
2019-04-27T12:24:00.793Z,10.15
2019-04-27T12:25:07.991Z,11.18
2019-04-27T12:26:15.817Z,10.53
2019-04-27T12:27:27.645Z,10.35
2019-04-27T12:28:36.661Z,9.58
2019-04-27T12:29:59.037Z,8.98
2019-04-27T12:31:08.751Z,9.28
2019-04-27T12:32:13.258Z,9.95
2019-04-27T12:33:18.029Z,8.70
2019-04-27T12:34:22.522Z,8.23
2019-04-27T12:35:26.984Z,8.30
2019-04-27T12:36:31.447Z,7.45
2019-04-27T12:37:36.060Z,6.92
2019-04-27T12:38:40.538Z,8.38
2019-04-27T12:39:45.008Z,7.25
2019-04-27T12:40:49.468Z,7.60
2019-04-27T12:41:55.966Z,7.60
2019-04-27T12:43:00.458Z,7.15
2019-04-27T12:44:07.056Z,8.85
2019-04-27T12:45:12.263Z,7.92
2019-04-27T12:46:16.833Z,8.60
2019-04-27T12:47:21.463Z,7.95
2019-04-27T12:48:26.012Z,7.40
2019-04-27T12:49:30.621Z,8.35
2019-04-27T12:50:36.161Z,8.45
2019-04-27T12:51:40.727Z,8.15
2019-04-27T12:52:46.827Z,8.38
2019-04-27T12:53:55.964Z,8.23
2019-04-27T12:55:17.229Z,7.47
2019-04-27T12:56:39.702Z,6.35
2019-04-27T12:57:49.463Z,6.92
2019-04-27T12:58:56.428Z,7.08
2019-04-27T13:00:02.592Z,6.72
2019-04-27T13:01:12.014Z,6.25
2019-04-27T13:02:17.199Z,6.00
2019-04-27T13:03:21.985Z,6.60
2019-04-27T13:04:26.492Z,6.42
2019-04-27T13:05:30.943Z,6.72
2019-04-27T13:06:35.849Z,7.28
2019-04-27T13:07:41.612Z,7.78
2019-04-27T13:08:46.102Z,7.12
2019-04-27T13:09:50.874Z,6.83
2019-04-27T13:10:57.294Z,6.90
2019-04-27T13:12:02.873Z,8.18
2019-04-27T13:13:07.682Z,7.33
2019-04-27T13:14:12.159Z,7.37
2019-04-27T13:15:17.074Z,7.10
2019-04-27T13:16:21.819Z,7.40
2019-04-27T13:17:26.602Z,6.80
2019-04-27T13:18:31.228Z,6.50
2019-04-27T13:19:36.562Z,7.20
2019-04-27T13:20:41.142Z,6.70
2019-04-27T13:21:46.933Z,6.37
2019-04-27T13:22:51.539Z,6.30
2019-04-27T13:24:03.963Z,6.75
2019-04-27T13:25:02.332Z,7.58
2019-04-27T13:26:07.328Z,7.47
2019-04-27T13:27:12.151Z,6.65
2019-04-27T13:28:18.586Z,6.92
2019-04-27T13:29:23.136Z,6.95
2019-04-27T13:30:28.007Z,6.83
2019-04-27T13:31:32.877Z,7.30
2019-04-27T13:32:37.963Z,6.90
2019-04-27T13:33:42.920Z,7.45
2019-04-27T13:34:47.830Z,7.08
2019-04-27T13:35:52.666Z,6.95
2019-04-27T13:36:58.763Z,6.83
2019-04-27T13:38:03.388Z,6.45
2019-04-27T13:39:08.083Z,6.33
2019-04-27T13:40:17.188Z,7.78
2019-04-27T13:41:30.342Z,8.30
2019-04-27T13:42:29.594Z,7.58
2019-04-27T13:43:36.895Z,7.75
2019-04-27T13:44:41.803Z,7.55
2019-04-27T13:45:50.944Z,8.30
2019-04-27T13:47:08.762Z,7.42
2019-04-27T13:48:33.026Z,6.83
2019-04-27T13:49:48.165Z,8.10
2019-04-27T13:51:12.184Z,8.43
2019-04-27T13:52:18.584Z,7.22
2019-04-27T13:53:23.222Z,7.47
2019-04-27T13:54:29.199Z,7.37
2019-04-27T13:55:33.753Z,8.25
2019-04-27T13:56:38.533Z,8.23
2019-04-27T13:57:50.078Z,8.03
2019-04-27T13:58:49.155Z,7.80
2019-04-27T13:59:53.632Z,7.92
2019-04-27T14:00:59.066Z,7.33
2019-04-27T14:02:04.364Z,7.03
2019-04-27T14:03:08.821Z,7.58
2019-04-27T14:04:13.978Z,8.55
2019-04-27T14:05:18.819Z,7.17
2019-04-27T14:06:23.589Z,7.95
2019-04-27T14:07:28.335Z,8.85
2019-04-27T14:08:32.804Z,8.10
2019-04-27T14:09:39.158Z,7.80
2019-04-27T14:10:44.016Z,8.15
2019-04-27T14:11:48.767Z,7.85
2019-04-27T14:12:53.271Z,8.05
2019-04-27T14:13:58.735Z,8.08
2019-04-27T14:15:03.455Z,8.25
2019-04-27T14:16:08.664Z,7.95
2019-04-27T14:17:13.395Z,9.43
2019-04-27T14:18:18.923Z,9.30
2019-04-27T14:19:24.277Z,10.20
2019-04-27T14:20:28.940Z,9.38